aviador You're here:

KZPH Decoded Metar

in
Report Time2017-06-27 05:15:00
UTC Time2017-06-27 05:23:33
Flight Rules vfr VFR
WindCalm
Visibility9999 m
Phenomena:N/A
Clouds:N/A
Expected CloudBase > 400 ft AGL from Temp-Dew spread
CeilingNone
Temp24°C
Dew Point23°C (94% RH)
QNH1017 hPa
Raw Report
METAR KZPH 270515Z AUTO 00000KT 10SM CLR 24/23 A3004 RMK AO2 T02370229=

Extra information for KZPH:More info

Social comments